Terminal Aerodrome Forecast
Issued by NWS Jackson, KY

Home | Current Version | Previous Version | Text Only | Print | Product List | Glossary On
Versions: 1 2 3 4 5 6 7 8 9 10 11 12 13 14 15 16 17
856
FTUS43 KJKL 142333
TAFJKL
TAF
KJKL 142333Z 1500/1524 VRB03KT P6SM FEW250
     FM151700 19007KT P6SM SCT250
     FM151900 22007G15KT P6SM VCSH BKN080
     FM152200 23006KT P6SM -SHRA OVC070=

USA.gov is the U.S. government's official web portal to all federal, state and local government web resources and services.